createdAt,value
2022-12-11T00:02:07.093Z,3.20
2022-12-11T00:04:33.987Z,3.17
2022-12-11T00:07:00.967Z,3.20
2022-12-11T00:09:27.827Z,3.13
2022-12-11T00:11:54.723Z,2.73
2022-12-11T00:14:21.796Z,3.30
2022-12-11T00:16:49.802Z,3.10
2022-12-11T00:19:17.028Z,2.90
2022-12-11T00:21:43.942Z,2.80
2022-12-11T00:24:11.029Z,3.20
2022-12-11T00:26:38.266Z,2.70
2022-12-11T00:29:05.218Z,3.23
2022-12-11T00:31:32.244Z,2.60
2022-12-11T00:33:59.275Z,3.03
2022-12-11T00:36:27.095Z,3.37
2022-12-11T00:38:54.326Z,2.93
2022-12-11T00:41:21.816Z,2.90
2022-12-11T00:43:48.914Z,3.07
2022-12-11T00:46:15.866Z,3.57
2022-12-11T00:48:42.867Z,3.07
2022-12-11T00:51:10.860Z,3.43
2022-12-11T00:53:38.719Z,2.90
2022-12-11T00:56:17.700Z,2.97
2022-12-11T00:58:46.101Z,3.43
2022-12-11T01:01:16.192Z,3.23
2022-12-11T01:03:43.317Z,2.83
2022-12-11T01:06:15.571Z,3.07
2022-12-11T01:08:42.937Z,2.80
2022-12-11T01:11:12.001Z,3.00
2022-12-11T01:13:39.556Z,2.90
2022-12-11T01:16:12.260Z,3.33
2022-12-11T01:18:39.403Z,2.50
2022-12-11T01:21:11.186Z,2.80
2022-12-11T01:23:39.041Z,2.83
2022-12-11T01:26:07.865Z,2.93
2022-12-11T01:28:34.889Z,2.90
2022-12-11T01:31:01.899Z,2.60
2022-12-11T01:33:29.043Z,2.80
2022-12-11T01:35:56.008Z,2.70
2022-12-11T01:38:22.908Z,2.80
2022-12-11T01:40:51.769Z,2.47
2022-12-11T01:43:19.521Z,2.97
2022-12-11T01:45:48.243Z,2.80
2022-12-11T01:48:19.475Z,2.80
2022-12-11T01:50:55.138Z,2.53
2022-12-11T01:53:29.347Z,2.87
2022-12-11T01:55:58.111Z,3.07
2022-12-11T01:58:28.855Z,2.57
2022-12-11T02:00:56.312Z,2.37
2022-12-11T02:03:23.481Z,2.90
2022-12-11T02:05:50.558Z,2.97
2022-12-11T02:08:17.615Z,2.27
2022-12-11T02:11:19.194Z,2.90
2022-12-11T02:14:09.564Z,2.50
2022-12-11T02:16:45.866Z,2.50
2022-12-11T02:19:29.616Z,2.60
2022-12-11T02:21:57.845Z,2.37
2022-12-11T02:24:27.812Z,3.00
2022-12-11T02:27:09.678Z,3.00
2022-12-11T02:29:50.100Z,2.73
2022-12-11T02:32:21.643Z,2.70
2022-12-11T02:34:55.977Z,2.70
2022-12-11T02:37:25.463Z,2.73
2022-12-11T02:39:54.699Z,2.70
2022-12-11T02:42:22.040Z,2.63
2022-12-11T02:44:50.370Z,2.67
2022-12-11T02:47:17.981Z,2.63
2022-12-11T02:49:48.002Z,3.40
2022-12-11T02:52:16.815Z,2.43
2022-12-11T02:54:44.713Z,3.10
2022-12-11T02:57:25.094Z,3.70
2022-12-11T02:59:51.995Z,2.80
2022-12-11T03:02:19.158Z,2.90
2022-12-11T03:04:48.535Z,3.13
2022-12-11T03:07:23.615Z,3.10
2022-12-11T03:09:51.614Z,2.90
2022-12-11T03:12:29.346Z,3.43
2022-12-11T03:14:58.022Z,3.20
2022-12-11T03:17:31.071Z,3.37
2022-12-11T03:20:10.119Z,3.27
2022-12-11T03:22:52.398Z,3.50
2022-12-11T03:25:23.424Z,3.67
2022-12-11T03:28:13.704Z,3.70
2022-12-11T03:30:42.460Z,3.33
2022-12-11T03:33:23.231Z,3.37
2022-12-11T03:35:56.669Z,4.10
2022-12-11T03:38:38.136Z,3.23
2022-12-11T03:41:06.111Z,3.60
2022-12-11T03:43:33.451Z,3.93
2022-12-11T03:46:01.243Z,3.50
2022-12-11T03:48:33.117Z,3.33
2022-12-11T03:51:01.238Z,3.80
2022-12-11T03:53:28.345Z,3.60
2022-12-11T03:55:56.697Z,3.87
2022-12-11T03:58:23.661Z,4.00
2022-12-11T04:00:50.550Z,3.67
2022-12-11T04:03:18.153Z,3.97
2022-12-11T04:05:48.257Z,3.60
2022-12-11T04:08:15.879Z,4.03
2022-12-11T04:10:43.347Z,3.90
2022-12-11T04:13:10.954Z,5.30
2022-12-11T04:15:38.593Z,5.63
2022-12-11T04:18:25.456Z,4.60
2022-12-11T04:21:14.535Z,7.47
2022-12-11T04:23:59.997Z,6.90
2022-12-11T04:26:26.979Z,6.47
2022-12-11T04:28:53.878Z,5.63
2022-12-11T04:31:22.416Z,5.47
2022-12-11T04:33:49.916Z,6.60
2022-12-11T04:36:17.273Z,6.07
2022-12-11T04:38:44.146Z,5.87
2022-12-11T04:41:12.808Z,6.00
2022-12-11T04:43:40.381Z,5.80
2022-12-11T04:46:09.840Z,4.83
2022-12-11T04:48:37.211Z,5.17
2022-12-11T04:51:05.004Z,5.37
2022-12-11T04:53:32.076Z,5.53
2022-12-11T04:55:59.074Z,5.00
2022-12-11T04:58:26.544Z,5.23
2022-12-11T05:00:53.892Z,6.00
2022-12-11T05:03:20.847Z,4.90
2022-12-11T05:05:52.159Z,6.00
2022-12-11T05:08:19.842Z,5.53
2022-12-11T05:10:59.639Z,5.80
2022-12-11T05:13:27.491Z,5.47
2022-12-11T05:15:54.674Z,5.70
2022-12-11T05:18:21.851Z,5.43
2022-12-11T05:21:01.915Z,5.60
2022-12-11T05:23:29.139Z,4.83
2022-12-11T05:26:00.480Z,5.73
2022-12-11T05:28:31.796Z,6.07
2022-12-11T05:31:00.684Z,5.90
2022-12-11T05:33:28.475Z,5.07
2022-12-11T05:35:55.444Z,5.90
2022-12-11T05:38:22.916Z,6.83
2022-12-11T05:41:17.164Z,5.50
2022-12-11T05:43:44.378Z,5.97
2022-12-11T05:46:20.436Z,4.97
2022-12-11T05:48:49.313Z,5.13
2022-12-11T05:51:16.704Z,5.57
2022-12-11T05:53:44.524Z,5.77
2022-12-11T05:56:16.885Z,5.57
2022-12-11T05:58:44.789Z,5.20
2022-12-11T06:01:14.453Z,5.50
2022-12-11T06:03:41.709Z,5.90
2022-12-11T06:06:09.002Z,5.70
2022-12-11T06:08:36.198Z,6.17
2022-12-11T06:11:03.919Z,5.80
2022-12-11T06:13:31.119Z,6.13
2022-12-11T06:16:05.828Z,5.40
2022-12-11T06:18:36.670Z,5.70
2022-12-11T06:21:13.806Z,5.80
2022-12-11T06:23:41.785Z,6.13
2022-12-11T06:26:09.728Z,5.83
2022-12-11T06:28:37.203Z,6.13
2022-12-11T06:31:04.882Z,5.93
2022-12-11T06:33:31.984Z,6.07
2022-12-11T06:36:07.263Z,6.73
2022-12-11T06:38:34.402Z,7.03
2022-12-11T06:41:05.053Z,7.33
2022-12-11T06:43:32.714Z,6.87
2022-12-11T06:46:03.852Z,7.20
2022-12-11T06:48:31.375Z,7.03
2022-12-11T06:50:58.268Z,6.80
2022-12-11T06:53:25.176Z,6.70
2022-12-11T06:55:52.049Z,7.97
2022-12-11T06:58:18.944Z,7.70
2022-12-11T07:00:46.043Z,7.17
2022-12-11T07:03:13.916Z,6.27
2022-12-11T07:05:40.839Z,6.73
2022-12-11T07:08:07.790Z,6.97
2022-12-11T07:10:34.698Z,6.47
2022-12-11T07:13:01.556Z,6.43
2022-12-11T07:15:28.618Z,7.20
2022-12-11T07:17:55.484Z,7.27
2022-12-11T07:20:22.502Z,7.17
2022-12-11T07:22:49.435Z,6.70
2022-12-11T07:25:16.485Z,7.10
2022-12-11T07:27:43.783Z,6.70
2022-12-11T07:30:11.570Z,6.80
2022-12-11T07:32:38.703Z,6.53
2022-12-11T07:35:05.952Z,7.30
2022-12-11T07:37:33.164Z,6.47
2022-12-11T07:40:00.050Z,7.27
2022-12-11T07:42:27.053Z,6.83
2022-12-11T07:44:53.917Z,6.43
2022-12-11T07:47:20.838Z,7.10
2022-12-11T07:49:48.616Z,6.70
2022-12-11T07:52:15.499Z,6.40
2022-12-11T07:54:42.431Z,7.30
2022-12-11T07:57:14.159Z,6.77
2022-12-11T07:59:42.039Z,7.70
2022-12-11T08:02:11.168Z,7.17
2022-12-11T08:04:38.328Z,6.83
2022-12-11T08:07:05.275Z,7.27
2022-12-11T08:09:32.238Z,6.80
2022-12-11T08:11:59.198Z,6.60
2022-12-11T08:14:26.197Z,5.80
2022-12-11T08:16:53.095Z,6.17
2022-12-11T08:19:20.074Z,6.07
2022-12-11T08:21:47.171Z,6.10
2022-12-11T08:24:16.543Z,7.00
2022-12-11T08:26:43.540Z,6.43
2022-12-11T08:29:10.519Z,6.13
2022-12-11T08:31:37.412Z,6.50
2022-12-11T08:34:04.279Z,6.60
2022-12-11T08:36:31.309Z,6.77
2022-12-11T08:38:58.288Z,6.97
2022-12-11T08:41:27.713Z,6.07
2022-12-11T08:43:55.621Z,5.67
2022-12-11T08:46:27.009Z,6.37
2022-12-11T08:48:54.883Z,6.77
2022-12-11T08:51:23.936Z,6.47
2022-12-11T08:53:51.601Z,6.20
2022-12-11T08:56:20.981Z,5.73
2022-12-11T08:58:47.949Z,7.33
2022-12-11T09:01:18.185Z,6.47
2022-12-11T09:03:45.396Z,6.50
2022-12-11T09:06:15.436Z,7.17
2022-12-11T09:08:48.551Z,7.43
2022-12-11T09:11:24.982Z,7.20
2022-12-11T09:13:52.212Z,5.70
2022-12-11T09:16:21.060Z,6.33
2022-12-11T09:18:49.037Z,5.93
2022-12-11T09:21:20.028Z,6.03
2022-12-11T09:23:47.385Z,5.60
2022-12-11T09:26:17.489Z,5.53
2022-12-11T09:28:46.849Z,5.87
2022-12-11T09:31:28.366Z,6.10
2022-12-11T09:33:58.417Z,6.47
2022-12-11T09:36:25.862Z,5.57
2022-12-11T09:38:52.824Z,6.37
2022-12-11T09:41:22.949Z,5.67
2022-12-11T09:43:58.325Z,5.23
2022-12-11T09:46:26.892Z,5.73
2022-12-11T09:48:55.617Z,5.20
2022-12-11T09:51:33.519Z,5.43
2022-12-11T09:54:02.376Z,5.50
2022-12-11T09:56:58.846Z,5.23
2022-12-11T09:59:41.258Z,6.00
2022-12-11T10:02:30.476Z,5.10
2022-12-11T10:05:09.619Z,5.67
2022-12-11T10:07:45.933Z,5.70
2022-12-11T10:10:45.124Z,5.00
2022-12-11T10:13:35.977Z,5.70
2022-12-11T10:16:50.462Z,5.50
2022-12-11T10:19:22.999Z,5.83
2022-12-11T10:21:51.327Z,6.07
2022-12-11T10:24:57.915Z,5.93
2022-12-11T10:27:24.868Z,5.93
2022-12-11T10:30:15.068Z,5.70
2022-12-11T10:32:47.563Z,5.70
2022-12-11T10:35:48.487Z,5.10
2022-12-11T10:38:31.572Z,5.40
2022-12-11T10:41:05.984Z,5.10
2022-12-11T10:43:42.617Z,6.37
2022-12-11T10:46:26.760Z,5.97
2022-12-11T10:48:57.975Z,6.33
2022-12-11T10:51:36.594Z,6.07
2022-12-11T10:54:18.881Z,5.80
2022-12-11T10:56:47.723Z,5.53
2022-12-11T10:59:24.528Z,5.63
2022-12-11T11:01:51.676Z,5.27
2022-12-11T11:04:30.912Z,6.03
2022-12-11T11:07:11.259Z,5.30
2022-12-11T11:09:39.988Z,5.80
2022-12-11T11:12:27.771Z,5.90
2022-12-11T11:15:12.561Z,6.40
2022-12-11T11:17:54.474Z,6.10
2022-12-11T11:20:27.880Z,6.60
2022-12-11T11:22:57.676Z,6.17
2022-12-11T11:25:32.848Z,6.17
2022-12-11T11:28:05.750Z,5.73
2022-12-11T11:30:36.466Z,6.27
2022-12-11T11:33:21.557Z,6.60
2022-12-11T11:36:08.328Z,5.60
2022-12-11T11:38:40.013Z,6.00
2022-12-11T11:41:17.799Z,6.97
2022-12-11T11:43:47.601Z,6.33
2022-12-11T11:46:21.268Z,6.27
2022-12-11T11:48:53.973Z,6.00
2022-12-11T11:51:35.138Z,6.20
2022-12-11T11:54:09.735Z,6.10
2022-12-11T11:56:38.046Z,5.57
2022-12-11T11:59:24.512Z,6.43
2022-12-11T12:01:54.856Z,6.60
2022-12-11T12:04:21.995Z,6.27
2022-12-11T12:06:58.059Z,5.77
2022-12-11T12:09:48.652Z,6.40
2022-12-11T12:12:38.612Z,6.57
2022-12-11T12:15:18.688Z,6.00
2022-12-11T12:18:07.648Z,6.10
2022-12-11T12:20:46.919Z,6.67
2022-12-11T12:23:36.941Z,5.47
2022-12-11T12:26:04.589Z,6.50
2022-12-11T12:28:36.749Z,5.93
2022-12-11T12:31:40.851Z,5.87
2022-12-11T12:34:40.212Z,5.50
2022-12-11T12:37:22.032Z,5.67
2022-12-11T12:40:27.815Z,5.80
2022-12-11T12:42:58.715Z,5.17
2022-12-11T12:45:35.331Z,6.30
2022-12-11T12:48:02.418Z,6.07
2022-12-11T12:50:43.669Z,5.57
2022-12-11T12:53:16.914Z,6.17
2022-12-11T12:55:44.284Z,5.97
2022-12-11T12:58:40.109Z,6.10
2022-12-11T13:01:15.825Z,5.60
2022-12-11T13:04:02.436Z,6.10
2022-12-11T13:06:38.324Z,5.73
2022-12-11T13:09:22.890Z,6.00
2022-12-11T13:11:53.976Z,6.00
2022-12-11T13:14:23.879Z,7.00
2022-12-11T13:16:52.283Z,6.07
2022-12-11T13:19:27.635Z,6.13
2022-12-11T13:22:15.887Z,6.00
2022-12-11T13:24:51.879Z,7.07
2022-12-11T13:27:28.008Z,6.10
2022-12-11T13:30:05.826Z,6.50
2022-12-11T13:32:33.559Z,5.93
2022-12-11T13:35:05.252Z,6.30
2022-12-11T13:37:36.145Z,5.97
2022-12-11T13:40:07.136Z,5.60
2022-12-11T13:42:44.802Z,6.10
2022-12-11T13:45:33.448Z,5.47
2022-12-11T13:48:00.854Z,6.10
2022-12-11T13:50:35.127Z,5.83
2022-12-11T13:53:05.148Z,6.00
2022-12-11T13:55:34.139Z,6.23
2022-12-11T13:58:01.269Z,5.90
2022-12-11T14:00:30.634Z,6.37
2022-12-11T14:02:59.851Z,6.07
2022-12-11T14:05:27.857Z,5.40
2022-12-11T14:07:59.265Z,5.77
2022-12-11T14:10:28.341Z,6.30
2022-12-11T14:13:02.192Z,6.37
2022-12-11T14:15:30.897Z,5.90
2022-12-11T14:17:58.708Z,5.30
2022-12-11T14:20:28.407Z,5.97
2022-12-11T14:23:25.002Z,5.53
2022-12-11T14:25:55.912Z,6.10
2022-12-11T14:28:27.627Z,6.73
2022-12-11T14:31:01.885Z,7.43
2022-12-11T14:33:44.192Z,10.90
2022-12-11T14:36:11.789Z,20.93
2022-12-11T14:38:44.990Z,19.03
2022-12-11T14:41:34.657Z,17.33
2022-12-11T14:44:03.678Z,22.37
2022-12-11T14:46:55.038Z,21.63
2022-12-11T14:49:42.955Z,22.17
2022-12-11T14:52:19.216Z,24.13
2022-12-11T14:55:00.806Z,21.33
2022-12-11T14:57:29.557Z,18.80
2022-12-11T14:59:57.180Z,20.70
2022-12-11T15:02:33.343Z,19.13
2022-12-11T15:05:20.510Z,21.03
2022-12-11T15:07:59.844Z,14.70
2022-12-11T15:10:37.074Z,15.00
2022-12-11T15:13:05.356Z,14.07
2022-12-11T15:15:36.257Z,14.07
2022-12-11T15:18:06.197Z,14.37
2022-12-11T15:20:33.178Z,11.87
2022-12-11T15:23:02.030Z,11.20
2022-12-11T15:25:29.957Z,11.03
2022-12-11T15:27:59.860Z,10.63
2022-12-11T15:30:29.264Z,9.73
2022-12-11T15:33:19.037Z,8.50
2022-12-11T15:36:01.865Z,7.53
2022-12-11T15:38:37.897Z,7.40
2022-12-11T15:41:05.390Z,7.20
2022-12-11T15:43:36.029Z,6.70
2022-12-11T15:46:03.801Z,7.47
2022-12-11T15:48:30.794Z,6.57
2022-12-11T15:50:58.462Z,7.87
2022-12-11T15:53:25.412Z,6.13
2022-12-11T15:55:53.219Z,6.37
2022-12-11T15:58:21.726Z,6.20
2022-12-11T16:00:48.602Z,6.53
2022-12-11T16:03:17.933Z,6.47
2022-12-11T16:05:45.276Z,6.40
2022-12-11T16:08:18.569Z,6.40
2022-12-11T16:10:46.487Z,6.53
2022-12-11T16:13:13.910Z,7.23
2022-12-11T16:15:43.499Z,6.80
2022-12-11T16:18:12.874Z,6.80
2022-12-11T16:20:41.183Z,7.00
2022-12-11T16:23:08.852Z,7.03
2022-12-11T16:25:37.951Z,6.77
2022-12-11T16:28:05.263Z,6.93
2022-12-11T16:30:32.265Z,6.00
2022-12-11T16:32:59.193Z,5.97
2022-12-11T16:35:26.126Z,5.73
2022-12-11T16:37:53.847Z,6.00
2022-12-11T16:40:21.014Z,5.97
2022-12-11T16:42:48.004Z,5.50
2022-12-11T16:45:20.056Z,5.63
2022-12-11T16:47:47.024Z,5.43
2022-12-11T16:50:15.822Z,5.90
2022-12-11T16:52:42.854Z,6.00
2022-12-11T16:55:12.176Z,5.43
2022-12-11T16:57:39.455Z,5.30
2022-12-11T17:00:09.018Z,5.27
2022-12-11T17:02:36.647Z,5.20
2022-12-11T17:05:04.019Z,5.50
2022-12-11T17:07:32.735Z,4.83
2022-12-11T17:10:02.021Z,5.80
2022-12-11T17:12:29.736Z,5.83
2022-12-11T17:14:57.013Z,5.23
2022-12-11T17:17:24.445Z,5.27
2022-12-11T17:19:51.349Z,5.47
2022-12-11T17:22:18.291Z,6.40
2022-12-11T17:24:45.218Z,5.57
2022-12-11T17:27:12.180Z,6.27
2022-12-11T17:29:39.237Z,5.47
2022-12-11T17:32:06.416Z,5.83
2022-12-11T17:34:37.837Z,5.10
2022-12-11T17:37:05.832Z,5.40
2022-12-11T17:39:32.812Z,5.10
2022-12-11T17:41:59.804Z,5.17
2022-12-11T17:44:27.072Z,5.33
2022-12-11T17:46:53.993Z,4.47
2022-12-11T17:49:20.902Z,4.90
2022-12-11T17:51:48.194Z,4.33
2022-12-11T17:54:15.286Z,4.40
2022-12-11T17:56:42.236Z,4.10
2022-12-11T17:59:09.096Z,4.73
2022-12-11T18:01:36.115Z,4.30
2022-12-11T18:04:03.232Z,4.60
2022-12-11T18:06:30.726Z,4.63
2022-12-11T18:08:58.056Z,5.23
2022-12-11T18:11:25.040Z,5.20
2022-12-11T18:13:53.143Z,5.63
2022-12-11T18:16:29.967Z,5.70
2022-12-11T18:18:57.110Z,6.47
2022-12-11T18:21:29.752Z,6.03
2022-12-11T18:23:57.091Z,7.23
2022-12-11T18:26:24.439Z,6.17
2022-12-11T18:28:53.131Z,8.20
2022-12-11T18:31:21.747Z,6.50
2022-12-11T18:33:49.095Z,6.43
2022-12-11T18:36:17.849Z,7.00
2022-12-11T18:38:44.941Z,7.03
2022-12-11T18:41:13.493Z,6.07
2022-12-11T18:43:40.787Z,6.33
2022-12-11T18:46:14.391Z,6.40
2022-12-11T18:48:42.471Z,5.50
2022-12-11T18:51:11.622Z,6.30
2022-12-11T18:53:42.068Z,5.87
2022-12-11T18:56:11.828Z,6.10
2022-12-11T18:58:38.992Z,5.50
2022-12-11T19:01:20.976Z,6.10
2022-12-11T19:03:48.487Z,5.60
2022-12-11T19:06:18.349Z,6.53
2022-12-11T19:08:45.907Z,5.90
2022-12-11T19:11:17.746Z,5.70
2022-12-11T19:13:45.057Z,5.87
2022-12-11T19:16:23.459Z,6.13
2022-12-11T19:18:50.711Z,7.57
2022-12-11T19:21:18.749Z,6.70
2022-12-11T19:23:46.575Z,7.57
2022-12-11T19:26:15.848Z,8.10
2022-12-11T19:28:43.187Z,8.53
2022-12-11T19:31:12.465Z,6.80
2022-12-11T19:33:40.817Z,7.03
2022-12-11T19:36:13.710Z,6.67
2022-12-11T19:38:41.839Z,6.93
2022-12-11T19:41:14.530Z,6.60
2022-12-11T19:43:41.407Z,6.63
2022-12-11T19:46:09.055Z,6.87
2022-12-11T19:48:41.566Z,6.23
2022-12-11T19:51:16.555Z,6.30
2022-12-11T19:53:45.238Z,6.40
2022-12-11T19:56:13.359Z,5.83
2022-12-11T19:58:40.492Z,5.23
2022-12-11T20:01:07.686Z,6.10
2022-12-11T20:03:35.274Z,6.23
2022-12-11T20:06:06.311Z,5.90
2022-12-11T20:08:44.747Z,6.13
2022-12-11T20:11:17.582Z,6.70
2022-12-11T20:13:48.808Z,6.13
2022-12-11T20:16:17.019Z,8.40
2022-12-11T20:18:44.246Z,6.77
2022-12-11T20:21:14.591Z,6.27
2022-12-11T20:23:42.253Z,7.33
2022-12-11T20:26:13.592Z,7.03
2022-12-11T20:28:40.885Z,7.83
2022-12-11T20:31:19.489Z,9.10
2022-12-11T20:33:48.871Z,10.60
2022-12-11T20:36:17.509Z,9.70
2022-12-11T20:38:44.698Z,9.50
2022-12-11T20:41:13.496Z,9.10
2022-12-11T20:43:40.958Z,9.23
2022-12-11T20:46:10.098Z,9.20
2022-12-11T20:48:37.457Z,8.20
2022-12-11T20:51:05.696Z,10.80
2022-12-11T20:53:32.788Z,10.73
2022-12-11T20:55:59.712Z,10.37
2022-12-11T20:58:26.774Z,13.03
2022-12-11T21:00:53.821Z,11.83
2022-12-11T21:03:20.747Z,21.00
2022-12-11T21:05:48.003Z,16.70
2022-12-11T21:08:14.968Z,14.33
2022-12-11T21:10:44.132Z,15.13
2022-12-11T21:13:11.306Z,16.77
2022-12-11T21:15:39.836Z,15.67
2022-12-11T21:18:07.852Z,14.97
2022-12-11T21:20:35.375Z,14.60
2022-12-11T21:23:03.367Z,18.10
2022-12-11T21:25:31.468Z,16.00
2022-12-11T21:27:59.417Z,14.60
2022-12-11T21:30:26.383Z,13.83
2022-12-11T21:32:53.514Z,13.67
2022-12-11T21:35:20.486Z,12.63
2022-12-11T21:37:47.415Z,11.77
2022-12-11T21:40:14.383Z,11.23
2022-12-11T21:42:41.376Z,10.57
2022-12-11T21:45:58.882Z,10.70
2022-12-11T21:47:55.314Z,8.87
2022-12-11T21:50:22.174Z,8.00
2022-12-11T21:52:49.140Z,8.43
2022-12-11T21:55:18.355Z,7.20
2022-12-11T21:57:45.262Z,8.33
2022-12-11T22:00:12.864Z,7.53
2022-12-11T22:02:41.285Z,6.60
2022-12-11T22:05:09.183Z,6.73
2022-12-11T22:07:36.340Z,6.60
2022-12-11T22:10:03.877Z,6.03
2022-12-11T22:12:30.778Z,6.30
2022-12-11T22:14:59.026Z,5.27
2022-12-11T22:17:25.954Z,6.20
2022-12-11T22:19:52.830Z,9.70
2022-12-11T22:22:20.024Z,7.57
2022-12-11T22:24:47.784Z,8.17
2022-12-11T22:27:19.062Z,8.73
2022-12-11T22:29:48.985Z,7.87
2022-12-11T22:32:15.879Z,7.23
2022-12-11T22:34:42.766Z,7.63
2022-12-11T22:37:09.676Z,7.10
2022-12-11T22:39:36.553Z,7.03
2022-12-11T22:42:03.560Z,9.60
2022-12-11T22:44:30.432Z,7.90
2022-12-11T22:46:57.647Z,8.47
2022-12-11T22:49:24.603Z,7.70
2022-12-11T22:51:51.494Z,7.23
2022-12-11T22:54:18.399Z,6.83
2022-12-11T22:56:45.328Z,5.93
2022-12-11T22:59:12.359Z,6.70
2022-12-11T23:01:39.343Z,8.70
2022-12-11T23:04:06.318Z,8.37
2022-12-11T23:06:33.406Z,7.97
2022-12-11T23:09:01.221Z,8.63
2022-12-11T23:11:31.102Z,7.80
2022-12-11T23:13:58.215Z,7.13
2022-12-11T23:16:26.480Z,6.93
2022-12-11T23:18:54.908Z,7.80
2022-12-11T23:21:22.619Z,8.20
2022-12-11T23:23:49.539Z,7.53
2022-12-11T23:26:18.901Z,6.97
2022-12-11T23:28:46.679Z,7.97
2022-12-11T23:31:14.282Z,7.03
2022-12-11T23:33:41.242Z,7.83
2022-12-11T23:36:09.202Z,6.83
2022-12-11T23:38:36.319Z,6.93
2022-12-11T23:41:04.347Z,7.33
2022-12-11T23:43:31.854Z,6.40
2022-12-11T23:45:58.870Z,6.57
2022-12-11T23:48:25.923Z,6.27
2022-12-11T23:50:52.977Z,5.90
2022-12-11T23:53:19.847Z,6.30
2022-12-11T23:55:46.811Z,6.13
2022-12-11T23:58:13.813Z,6.50
